Fredville, Kentucky
Current Conditions -  °F | °C
As of 10:53 PM on Sunday 23 Nov 2014 (Local Time) from KJKL Reporting Station
Overcast Overcast  
Wind Chill: 60°   Ceiling: 3600
Heat Index: 60°   Visibility: 10mi
Dew Point: 51°   Wind: 6mph
Humidity: 72%   Direction: NA
Pressure: 29.45"   Gusts: 20mph
Location:  37.7261°N, 83.0786°W
Report Text: KJKL 240353Z AUTO VRB05G17KT 10SM BKN036 OVC055 16/11 A2945 RMK AO2 SLP965 T01560106
Loading
Personal Weather Stations






























Interactive Weather Map New forecast layout! Learn more

10-Day Weather Forecast

Advertisements
Track Severe Weather on mobile